Back to Top

Language: 

My Weather Underground Personal Weather Station Historical Data with Graphs...

Delerius Weather Station Historical Data
Daily Summary for April 20, 2017 Units:  Both    English   Metric
« Previous Day
Next Day »
Daily Weekly Monthly Yearly Custom
  High: Low: Average:
Temperature: 59.5 °F /  15.3 °C 46.4 °F /  8 °C 52.7 °F /  11.5 °C
Dew Point: 50.1 °F /  10.1 °C 40.4 °F /  4.7 °C 46.4 °F /  8 °C
Humidity: 94 % 61 % 80 %
Wind Speed: 14.0 mph /  22.5 km/h - 6.2 mph /  10 km/h
Wind Gust: 25.0 mph /  40.2 km/h - -
Wind:- - WNW
Pressure: 30.56 in /  1034.8 hPa 30.49 in /  1032.4 hPa -
Precipitation: 0.02 in /  0.51 mm    
Historical Graphs
 
 
Tabular Data for April 20, 2017
Time Temperature Dew Point Pressure Wind Wind Speed Wind Gust Humidity Rainfall Rate (Hourly) solar Conditions
00:03 48.4 °F /  9.1 °C 40.8 °F /  4.9 °C 30.56 in /  1034.8 hPa Calm     75 % 0.00 in /  0 mm 0 W/m2
00:08 48.2 °F /  9 °C 40.6 °F /  4.8 °C 30.56 in /  1034.8 hPa Calm     75 % 0.00 in /  0 mm 0 W/m2
00:13 47.8 °F /  8.8 °C 40.6 °F /  4.8 °C 30.56 in /  1034.8 hPa Calm     76 % 0.00 in /  0 mm 0 W/m2
00:18 47.5 °F /  8.6 °C 40.6 °F /  4.8 °C 30.56 in /  1034.8 hPa Calm   1.0 mph /  1.6 km/h 77 % 0.00 in /  0 mm 0 W/m2
00:23 47.3 °F /  8.5 °C 40.8 °F /  4.9 °C 30.56 in /  1034.8 hPa Calm   1.0 mph /  1.6 km/h 78 % 0.00 in /  0 mm 0 W/m2
00:28 46.9 °F /  8.3 °C 40.4 °F /  4.7 °C 30.56 in /  1034.8 hPa Calm     78 % 0.00 in /  0 mm 0 W/m2
00:33 46.8 °F /  8.2 °C 40.6 °F /  4.8 °C 30.56 in /  1034.8 hPa Calm     79 % 0.00 in /  0 mm 0 W/m2
00:38 46.6 °F /  8.1 °C 40.7 °F /  4.8 °C 30.56 in /  1034.8 hPa Calm   2.0 mph /  3.2 km/h 80 % 0.00 in /  0 mm 0 W/m2
00:43 46.6 °F /  8.1 °C 41.1 °F /  5.1 °C 30.56 in /  1034.8 hPa Calm   2.0 mph /  3.2 km/h 81 % 0.00 in /  0 mm 0 W/m2
00:44 46.6 °F /  8.1 °C 41.1 °F /  5.1 °C 30.56 in /  1034.8 hPa Calm   2.0 mph /  3.2 km/h 81 % 0.00 in /  0 mm 0 W/m2
00:49 46.4 °F /  8 °C 41.2 °F /  5.1 °C 30.56 in /  1034.8 hPa Calm   2.0 mph /  3.2 km/h 82 % 0.00 in /  0 mm 0 W/m2
00:54 46.4 °F /  8 °C 41.2 °F /  5.1 °C 30.56 in /  1034.8 hPa West 1.0 mph /  1.6 km/h 4.0 mph /  6.4 km/h 82 % 0.00 in /  0 mm 0 W/m2
00:59 46.4 °F /  8 °C 41.5 °F /  5.3 °C 30.56 in /  1034.8 hPa West 1.0 mph /  1.6 km/h 4.0 mph /  6.4 km/h 83 % 0.00 in /  0 mm 0 W/m2
01:04 46.4 °F /  8 °C 41.5 °F /  5.3 °C 30.56 in /  1034.8 hPa West 1.0 mph /  1.6 km/h 3.0 mph /  4.8 km/h 83 % 0.00 in /  0 mm 0 W/m2
01:09 46.6 °F /  8.1 °C 41.7 °F /  5.4 °C 30.56 in /  1034.8 hPa West 1.0 mph /  1.6 km/h 2.0 mph /  3.2 km/h 83 % 0.00 in /  0 mm 0 W/m2
01:14 46.6 °F /  8.1 °C 42.0 °F /  5.6 °C 30.56 in /  1034.8 hPa West 1.0 mph /  1.6 km/h 4.0 mph /  6.4 km/h 84 % 0.00 in /  0 mm 0 W/m2
01:19 46.6 °F /  8.1 °C 42.0 °F /  5.6 °C 30.55 in /  1034.4 hPa West 1.0 mph /  1.6 km/h 4.0 mph /  6.4 km/h 84 % 0.00 in /  0 mm 0 W/m2
01:24 46.6 °F /  8.1 °C 42.0 °F /  5.6 °C 30.55 in /  1034.4 hPa West 1.0 mph /  1.6 km/h 4.0 mph /  6.4 km/h 84 % 0.00 in /  0 mm 0 W/m2
01:29 46.6 °F /  8.1 °C 42.3 °F /  5.7 °C 30.55 in /  1034.4 hPa West 1.0 mph /  1.6 km/h 4.0 mph /  6.4 km/h 85 % 0.00 in /  0 mm 0 W/m2
01:34 46.6 °F /  8.1 °C 42.3 °F /  5.7 °C 30.55 in /  1034.4 hPa Calm   4.0 mph /  6.4 km/h 85 % 0.00 in /  0 mm 0 W/m2
01:39 46.6 °F /  8.1 °C 42.6 °F /  5.9 °C 30.55 in /  1034.4 hPa West 1.0 mph /  1.6 km/h 5.0 mph /  8 km/h 86 % 0.00 in /  0 mm 0 W/m2
01:44 46.6 °F /  8.1 °C 42.6 °F /  5.9 °C 30.55 in /  1034.4 hPa West 2.0 mph /  3.2 km/h 5.0 mph /  8 km/h 86 % 0.00 in /  0 mm 0 W/m2
01:49 46.6 °F /  8.1 °C 42.9 °F /  6.1 °C 30.55 in /  1034.4 hPa West 2.0 mph /  3.2 km/h 5.0 mph /  8 km/h 87 % 0.00 in /  0 mm 0 W/m2
01:54 46.6 °F /  8.1 °C 42.9 °F /  6.1 °C 30.55 in /  1034.4 hPa West 2.0 mph /  3.2 km/h 4.0 mph /  6.4 km/h 87 % 0.00 in /  0 mm 0 W/m2
01:59 46.6 °F /  8.1 °C 42.9 °F /  6.1 °C 30.55 in /  1034.4 hPa West 2.0 mph /  3.2 km/h 5.0 mph /  8 km/h 87 % 0.00 in /  0 mm 0 W/m2
02:04 46.6 °F /  8.1 °C 43.2 °F /  6.2 °C 30.55 in /  1034.4 hPa West 3.0 mph /  4.8 km/h 6.0 mph /  9.7 km/h 88 % 0.00 in /  0 mm 0 W/m2
02:09 46.8 °F /  8.2 °C 43.7 °F /  6.5 °C 30.55 in /  1034.4 hPa West 3.0 mph /  4.8 km/h 6.0 mph /  9.7 km/h 89 % 0.00 in /  0 mm 0 W/m2
02:14 46.8 °F /  8.2 °C 43.7 °F /  6.5 °C 30.55 in /  1034.4 hPa West 3.0 mph /  4.8 km/h 6.0 mph /  9.7 km/h 89 % 0.00 in /  0 mm 0 W/m2
02:19 46.9 °F /  8.3 °C 43.9 °F /  6.6 °C 30.55 in /  1034.4 hPa West 3.0 mph /  4.8 km/h 5.0 mph /  8 km/h 89 % 0.00 in /  0 mm 0 W/m2
02:24 46.9 °F /  8.3 °C 43.9 °F /  6.6 °C 30.55 in /  1034.4 hPa West 2.0 mph /  3.2 km/h 5.0 mph /  8 km/h 89 % 0.00 in /  0 mm 0 W/m2
02:29 46.9 °F /  8.3 °C 43.9 °F /  6.6 °C 30.55 in /  1034.4 hPa West 2.0 mph /  3.2 km/h 5.0 mph /  8 km/h 89 % 0.00 in /  0 mm 0 W/m2
02:30 46.9 °F /  8.3 °C 43.9 °F /  6.6 °C 30.55 in /  1034.4 hPa West 2.0 mph /  3.2 km/h 5.0 mph /  8 km/h 89 % 0.00 in /  0 mm 0 W/m2
02:35 46.8 °F /  8.2 °C 43.7 °F /  6.5 °C 30.55 in /  1034.4 hPa West 2.0 mph /  3.2 km/h 4.0 mph /  6.4 km/h 89 % 0.00 in /  0 mm 0 W/m2
02:40 46.8 °F /  8.2 °C 44.0 °F /  6.7 °C 30.55 in /  1034.4 hPa West 2.0 mph /  3.2 km/h 4.0 mph /  6.4 km/h 90 % 0.00 in /  0 mm 0 W/m2
02:45 46.8 °F /  8.2 °C 44.0 °F /  6.7 °C 30.55 in /  1034.4 hPa West 1.0 mph /  1.6 km/h 4.0 mph /  6.4 km/h 90 % 0.00 in /  0 mm 0 W/m2
02:50 46.8 °F /  8.2 °C 44.0 °F /  6.7 °C 30.54 in /  1034.1 hPa West 1.0 mph /  1.6 km/h 3.0 mph /  4.8 km/h 90 % 0.00 in /  0 mm 0 W/m2
02:55 46.8 °F /  8.2 °C 44.3 °F /  6.8 °C 30.54 in /  1034.1 hPa West 1.0 mph /  1.6 km/h 4.0 mph /  6.4 km/h 91 % 0.00 in /  0 mm 0 W/m2
03:00 46.9 °F /  8.3 °C 44.4 °F /  6.9 °C 30.54 in /  1034.1 hPa West 2.0 mph /  3.2 km/h 5.0 mph /  8 km/h 91 % 0.00 in /  0 mm 0 W/m2
03:05 47.1 °F /  8.4 °C 44.6 °F /  7 °C 30.54 in /  1034.1 hPa West 2.0 mph /  3.2 km/h 5.0 mph /  8 km/h 91 % 0.00 in /  0 mm 0 W/m2
03:10 47.3 °F /  8.5 °C 44.8 °F /  7.1 °C 30.54 in /  1034.1 hPa West 2.0 mph /  3.2 km/h 5.0 mph /  8 km/h 91 % 0.00 in /  0 mm 0 W/m2
03:15 47.5 °F /  8.6 °C 45.3 °F /  7.4 °C 30.54 in /  1034.1 hPa West 2.0 mph /  3.2 km/h 5.0 mph /  8 km/h 92 % 0.00 in /  0 mm 0 W/m2
03:20 47.5 °F /  8.6 °C 45.3 °F /  7.4 °C 30.54 in /  1034.1 hPa West 2.0 mph /  3.2 km/h 5.0 mph /  8 km/h 92 % 0.00 in /  0 mm 0 W/m2
03:25 47.5 °F /  8.6 °C 45.3 °F /  7.4 °C 30.54 in /  1034.1 hPa West 2.0 mph /  3.2 km/h 5.0 mph /  8 km/h 92 % 0.00 in /  0 mm 0 W/m2
03:30 47.7 °F /  8.7 °C 45.5 °F /  7.5 °C 30.54 in /  1034.1 hPa West 2.0 mph /  3.2 km/h 4.0 mph /  6.4 km/h 92 % 0.00 in /  0 mm 0 W/m2
03:35 47.7 °F /  8.7 °C 45.5 °F /  7.5 °C 30.54 in /  1034.1 hPa West 1.0 mph /  1.6 km/h 4.0 mph /  6.4 km/h 92 % 0.00 in /  0 mm 0 W/m2
03:40 47.7 °F /  8.7 °C 45.7 °F /  7.6 °C 30.54 in /  1034.1 hPa West 1.0 mph /  1.6 km/h 4.0 mph /  6.4 km/h 93 % 0.00 in /  0 mm 0 W/m2
03:45 47.8 °F /  8.8 °C 45.9 °F /  7.7 °C 30.53 in /  1033.7 hPa West 1.0 mph /  1.6 km/h 4.0 mph /  6.4 km/h 93 % 0.00 in /  0 mm 0 W/m2
03:50 47.8 °F /  8.8 °C 45.9 °F /  7.7 °C 30.53 in /  1033.7 hPa West 1.0 mph /  1.6 km/h 5.0 mph /  8 km/h 93 % 0.00 in /  0 mm 0 W/m2
03:55 47.8 °F /  8.8 °C 45.9 °F /  7.7 °C 30.53 in /  1033.7 hPa West 3.0 mph /  4.8 km/h 8.0 mph /  12.9 km/h 93 % 0.00 in /  0 mm 0 W/m2
04:00 48.0 °F /  8.9 °C 46.1 °F /  7.8 °C 30.53 in /  1033.7 hPa West 3.0 mph /  4.8 km/h 8.0 mph /  12.9 km/h 93 % 0.01 in /  0.25 mm 0 W/m2
04:05 48.0 °F /  8.9 °C 46.1 °F /  7.8 °C 30.53 in /  1033.7 hPa WNW 3.0 mph /  4.8 km/h 7.0 mph /  11.3 km/h 93 % 0.01 in /  0.25 mm 0 W/m2
04:10 48.2 °F /  9 °C 46.3 °F /  7.9 °C 30.53 in /  1033.7 hPa WNW 3.0 mph /  4.8 km/h 7.0 mph /  11.3 km/h 93 % 0.01 in /  0.25 mm 0 W/m2
04:15 48.4 °F /  9.1 °C 46.4 °F /  8 °C 30.53 in /  1033.7 hPa WNW 4.0 mph /  6.4 km/h 6.0 mph /  9.7 km/h 93 % 0.01 in /  0.25 mm 0 W/m2
04:20 48.4 °F /  9.1 °C 46.4 °F /  8 °C 30.53 in /  1033.7 hPa WNW 3.0 mph /  4.8 km/h 6.0 mph /  9.7 km/h 93 % 0.01 in /  0.25 mm 0 W/m2
04:25 48.4 °F /  9.1 °C 46.4 °F /  8 °C 30.53 in /  1033.7 hPa West 3.0 mph /  4.8 km/h 9.0 mph /  14.5 km/h 93 % 0.01 in /  0.25 mm 0 W/m2
04:30 48.4 °F /  9.1 °C 46.4 °F /  8 °C 30.53 in /  1033.7 hPa West 5.0 mph /  8 km/h 9.0 mph /  14.5 km/h 93 % 0.01 in /  0.25 mm 0 W/m2
04:35 48.4 °F /  9.1 °C 46.4 °F /  8 °C 30.53 in /  1033.7 hPa West 4.0 mph /  6.4 km/h 8.0 mph /  12.9 km/h 93 % 0.01 in /  0.25 mm 0 W/m2
04:40 48.4 °F /  9.1 °C 46.4 °F /  8 °C 30.52 in /  1033.4 hPa West 4.0 mph /  6.4 km/h 8.0 mph /  12.9 km/h 93 % 0.01 in /  0.25 mm 0 W/m2
04:45 48.4 °F /  9.1 °C 46.4 °F /  8 °C 30.52 in /  1033.4 hPa West 4.0 mph /  6.4 km/h 8.0 mph /  12.9 km/h 93 % 0.01 in /  0.25 mm 0 W/m2
04:50 48.4 °F /  9.1 °C 46.4 °F /  8 °C 30.52 in /  1033.4 hPa West 4.0 mph /  6.4 km/h 9.0 mph /  14.5 km/h 93 % 0.01 in /  0.25 mm 0 W/m2
04:55 48.4 °F /  9.1 °C 46.4 °F /  8 °C 30.52 in /  1033.4 hPa West 4.0 mph /  6.4 km/h 9.0 mph /  14.5 km/h 93 % 0.01 in /  0.25 mm 0 W/m2
05:00 48.4 °F /  9.1 °C 46.4 °F /  8 °C 30.52 in /  1033.4 hPa WNW 4.0 mph /  6.4 km/h 7.0 mph /  11.3 km/h 93 % 0.00 in /  0 mm 0 W/m2
05:05 48.4 °F /  9.1 °C 46.4 °F /  8 °C 30.52 in /  1033.4 hPa WNW 4.0 mph /  6.4 km/h 7.0 mph /  11.3 km/h 93 % 0.00 in /  0 mm 0 W/m2
05:10 48.4 °F /  9.1 °C 46.4 °F /  8 °C 30.52 in /  1033.4 hPa WNW 3.0 mph /  4.8 km/h 8.0 mph /  12.9 km/h 93 % 0.00 in /  0 mm 0 W/m2
05:15 48.4 °F /  9.1 °C 46.4 °F /  8 °C 30.52 in /  1033.4 hPa WNW 3.0 mph /  4.8 km/h 8.0 mph /  12.9 km/h 93 % 0.00 in /  0 mm 0 W/m2
05:20 48.4 °F /  9.1 °C 46.4 °F /  8 °C 30.52 in /  1033.4 hPa WNW 3.0 mph /  4.8 km/h 7.0 mph /  11.3 km/h 93 % 0.00 in /  0 mm 0 W/m2
05:26 48.4 °F /  9.1 °C 46.4 °F /  8 °C 30.52 in /  1033.4 hPa West 3.0 mph /  4.8 km/h 7.0 mph /  11.3 km/h 93 % 0.00 in /  0 mm 0 W/m2
05:31 48.4 °F /  9.1 °C 46.4 °F /  8 °C 30.52 in /  1033.4 hPa West 2.0 mph /  3.2 km/h 6.0 mph /  9.7 km/h 93 % 0.00 in /  0 mm 0 W/m2
05:36 48.2 °F /  9 °C 46.3 °F /  7.9 °C 30.52 in /  1033.4 hPa West 2.0 mph /  3.2 km/h 7.0 mph /  11.3 km/h 93 % 0.00 in /  0 mm 0 W/m2
05:41 48.2 °F /  9 °C 46.3 °F /  7.9 °C 30.52 in /  1033.4 hPa West 3.0 mph /  4.8 km/h 8.0 mph /  12.9 km/h 93 % 0.00 in /  0 mm 0 W/m2
05:46 48.2 °F /  9 °C 46.3 °F /  7.9 °C 30.52 in /  1033.4 hPa West 4.0 mph /  6.4 km/h 8.0 mph /  12.9 km/h 93 % 0.00 in /  0 mm 0 W/m2
05:47 48.2 °F /  9 °C 46.3 °F /  7.9 °C 30.52 in /  1033.4 hPa West 4.0 mph /  6.4 km/h 8.0 mph /  12.9 km/h 93 % 0.00 in /  0 mm 0 W/m2
05:52 48.0 °F /  8.9 °C 46.1 °F /  7.8 °C 30.52 in /  1033.4 hPa WNW 3.0 mph /  4.8 km/h 7.0 mph /  11.3 km/h 93 % 0.00 in /  0 mm 0 W/m2
05:57 48.0 °F /  8.9 °C 46.1 °F /  7.8 °C 30.52 in /  1033.4 hPa WNW 3.0 mph /  4.8 km/h 7.0 mph /  11.3 km/h 93 % 0.01 in /  0.25 mm 0 W/m2
06:02 48.0 °F /  8.9 °C 46.1 °F /  7.8 °C 30.52 in /  1033.4 hPa WNW 3.0 mph /  4.8 km/h 6.0 mph /  9.7 km/h 93 % 0.01 in /  0.25 mm 5 W/m2
06:07 48.0 °F /  8.9 °C 46.1 °F /  7.8 °C 30.53 in /  1033.7 hPa WNW 2.0 mph /  3.2 km/h 6.0 mph /  9.7 km/h 93 % 0.01 in /  0.25 mm 5 W/m2
06:13 48.0 °F /  8.9 °C 46.1 °F /  7.8 °C 30.53 in /  1033.7 hPa WNW 2.0 mph /  3.2 km/h 6.0 mph /  9.7 km/h 93 % 0.01 in /  0.25 mm 7 W/m2
06:18 48.0 °F /  8.9 °C 46.1 °F /  7.8 °C 30.53 in /  1033.7 hPa WNW 2.0 mph /  3.2 km/h 5.0 mph /  8 km/h 93 % 0.01 in /  0.25 mm 7 W/m2
06:23 48.0 °F /  8.9 °C 46.1 °F /  7.8 °C 30.53 in /  1033.7 hPa WNW 2.0 mph /  3.2 km/h 5.0 mph /  8 km/h 93 % 0.01 in /  0.25 mm 7 W/m2
06:28 48.0 °F /  8.9 °C 46.1 °F /  7.8 °C 30.53 in /  1033.7 hPa WNW 1.0 mph /  1.6 km/h 5.0 mph /  8 km/h 93 % 0.01 in /  0.25 mm 9 W/m2
06:33 48.0 °F /  8.9 °C 46.1 °F /  7.8 °C 30.53 in /  1033.7 hPa Calm     93 % 0.01 in /  0.25 mm 11 W/m2
06:38 48.0 °F /  8.9 °C 46.1 °F /  7.8 °C 30.53 in /  1033.7 hPa Calm     93 % 0.01 in /  0.25 mm 11 W/m2
06:43 48.0 °F /  8.9 °C 46.1 °F /  7.8 °C 30.53 in /  1033.7 hPa Calm   1.0 mph /  1.6 km/h 93 % 0.01 in /  0.25 mm 14 W/m2
06:48 48.0 °F /  8.9 °C 46.1 °F /  7.8 °C 30.53 in /  1033.7 hPa Calm   1.0 mph /  1.6 km/h 93 % 0.01 in /  0.25 mm 19 W/m2
06:53 48.2 °F /  9 °C 46.3 °F /  7.9 °C 30.53 in /  1033.7 hPa Calm     93 % 0.00 in /  0 mm 25 W/m2
06:58 48.4 °F /  9.1 °C 46.4 °F /  8 °C 30.53 in /  1033.7 hPa Calm     93 % 0.00 in /  0 mm 26 W/m2
07:03 48.4 °F /  9.1 °C 46.7 °F /  8.2 °C 30.53 in /  1033.7 hPa Calm     94 % 0.00 in /  0 mm 32 W/m2
07:08 48.4 °F /  9.1 °C 46.7 °F /  8.2 °C 30.53 in /  1033.7 hPa Calm   1.0 mph /  1.6 km/h 94 % 0.00 in /  0 mm 39 W/m2
07:13 48.6 °F /  9.2 °C 46.9 °F /  8.3 °C 30.53 in /  1033.7 hPa Calm   1.0 mph /  1.6 km/h 94 % 0.00 in /  0 mm 42 W/m2
07:18 48.7 °F /  9.3 °C 47.1 °F /  8.4 °C 30.53 in /  1033.7 hPa Calm   4.0 mph /  6.4 km/h 94 % 0.00 in /  0 mm 37 W/m2
07:23 48.9 °F /  9.4 °C 47.3 °F /  8.5 °C 30.53 in /  1033.7 hPa Calm   4.0 mph /  6.4 km/h 94 % 0.00 in /  0 mm 37 W/m2
07:28 49.1 °F /  9.5 °C 47.4 °F /  8.6 °C 30.54 in /  1034.1 hPa Calm   4.0 mph /  6.4 km/h 94 % 0.00 in /  0 mm 42 W/m2
07:33 49.5 °F /  9.7 °C 47.8 °F /  8.8 °C 30.54 in /  1034.1 hPa West 3.0 mph /  4.8 km/h 10.0 mph /  16.1 km/h 94 % 0.00 in /  0 mm 44 W/m2
07:34 49.5 °F /  9.7 °C 47.8 °F /  8.8 °C 30.54 in /  1034.1 hPa WNW 3.0 mph /  4.8 km/h 10.0 mph /  16.1 km/h 94 % 0.00 in /  0 mm 46 W/m2
07:39 49.6 °F /  9.8 °C 48.0 °F /  8.9 °C 30.54 in /  1034.1 hPa WNW 6.0 mph /  9.7 km/h 12.0 mph /  19.3 km/h 94 % 0.00 in /  0 mm 51 W/m2
07:44 49.8 °F /  9.9 °C 48.2 °F /  9 °C 30.54 in /  1034.1 hPa WNW 7.0 mph /  11.3 km/h 13.0 mph /  20.9 km/h 94 % 0.00 in /  0 mm 58 W/m2
07:49 50.0 °F /  10 °C 48.1 °F /  8.9 °C 30.54 in /  1034.1 hPa WNW 7.0 mph /  11.3 km/h 13.0 mph /  20.9 km/h 93 % 0.00 in /  0 mm 63 W/m2
07:55 50.2 °F /  10.1 °C 48.2 °F /  9 °C 30.54 in /  1034.1 hPa WNW 8.0 mph /  12.9 km/h 13.0 mph /  20.9 km/h 93 % 0.00 in /  0 mm 60 W/m2
08:00 50.4 °F /  10.2 °C 48.4 °F /  9.1 °C 30.54 in /  1034.1 hPa WNW 9.0 mph /  14.5 km/h 14.0 mph /  22.5 km/h 93 % 0.00 in /  0 mm 65 W/m2
08:05 50.4 °F /  10.2 °C 48.4 °F /  9.1 °C 30.54 in /  1034.1 hPa WNW 8.0 mph /  12.9 km/h 14.0 mph /  22.5 km/h 93 % 0.00 in /  0 mm 74 W/m2
08:10 50.5 °F /  10.3 °C 48.3 °F /  9.1 °C 30.54 in /  1034.1 hPa WNW 8.0 mph /  12.9 km/h 12.0 mph /  19.3 km/h 92 % 0.00 in /  0 mm 90 W/m2
08:15 50.5 °F /  10.3 °C 48.3 °F /  9.1 °C 30.54 in /  1034.1 hPa WNW 7.0 mph /  11.3 km/h 12.0 mph /  19.3 km/h 92 % 0.00 in /  0 mm 100 W/m2
08:20 50.7 °F /  10.4 °C 48.5 °F /  9.2 °C 30.54 in /  1034.1 hPa WNW 6.0 mph /  9.7 km/h 11.0 mph /  17.7 km/h 92 % 0.00 in /  0 mm 100 W/m2
08:25 50.9 °F /  10.5 °C 48.7 °F /  9.3 °C 30.54 in /  1034.1 hPa WNW 4.0 mph /  6.4 km/h 9.0 mph /  14.5 km/h 92 % 0.00 in /  0 mm 120 W/m2
08:30 51.1 °F /  10.6 °C 48.8 °F /  9.3 °C 30.55 in /  1034.4 hPa WNW 4.0 mph /  6.4 km/h 8.0 mph /  12.9 km/h 92 % 0.00 in /  0 mm 135 W/m2
08:35 51.3 °F /  10.7 °C 49.0 °F /  9.4 °C 30.54 in /  1034.1 hPa WNW 4.0 mph /  6.4 km/h 8.0 mph /  12.9 km/h 92 % 0.00 in /  0 mm 181 W/m2
08:40 51.6 °F /  10.9 °C 49.4 °F /  9.7 °C 30.54 in /  1034.1 hPa WNW 5.0 mph /  8 km/h 9.0 mph /  14.5 km/h 92 % 0.00 in /  0 mm 220 W/m2
08:45 52.0 °F /  11.1 °C 49.4 °F /  9.7 °C 30.54 in /  1034.1 hPa WNW 6.0 mph /  9.7 km/h 12.0 mph /  19.3 km/h 91 % 0.00 in /  0 mm 244 W/m2
08:50 52.3 °F /  11.3 °C 49.8 °F /  9.9 °C 30.54 in /  1034.1 hPa WNW 6.0 mph /  9.7 km/h 12.0 mph /  19.3 km/h 91 % 0.00 in /  0 mm 200 W/m2
08:55 52.5 °F /  11.4 °C 49.7 °F /  9.8 °C 30.54 in /  1034.1 hPa WNW 6.0 mph /  9.7 km/h 10.0 mph /  16.1 km/h 90 % 0.00 in /  0 mm 193 W/m2
09:00 52.9 °F /  11.6 °C 50.0 °F /  10 °C 30.54 in /  1034.1 hPa WNW 5.0 mph /  8 km/h 10.0 mph /  16.1 km/h 90 % 0.00 in /  0 mm 192 W/m2
09:05 53.1 °F /  11.7 °C 49.9 °F /  9.9 °C 30.54 in /  1034.1 hPa WNW 7.0 mph /  11.3 km/h 13.0 mph /  20.9 km/h 89 % 0.00 in /  0 mm 178 W/m2
09:10 53.1 °F /  11.7 °C 49.6 °F /  9.8 °C 30.54 in /  1034.1 hPa WNW 8.0 mph /  12.9 km/h 14.0 mph /  22.5 km/h 88 % 0.00 in /  0 mm 202 W/m2
09:15 53.1 °F /  11.7 °C 49.6 °F /  9.8 °C 30.54 in /  1034.1 hPa WNW 7.0 mph /  11.3 km/h 14.0 mph /  22.5 km/h 88 % 0.00 in /  0 mm 149 W/m2
09:20 53.2 °F /  11.8 °C 49.8 °F /  9.9 °C 30.54 in /  1034.1 hPa WNW 5.0 mph /  8 km/h 10.0 mph /  16.1 km/h 88 % 0.00 in /  0 mm 156 W/m2
09:25 53.2 °F /  11.8 °C 49.5 °F /  9.7 °C 30.54 in /  1034.1 hPa WNW 5.0 mph /  8 km/h 10.0 mph /  16.1 km/h 87 % 0.00 in /  0 mm 214 W/m2
09:30 53.4 °F /  11.9 °C 49.6 °F /  9.8 °C 30.54 in /  1034.1 hPa WNW 5.0 mph /  8 km/h 11.0 mph /  17.7 km/h 87 % 0.00 in /  0 mm 246 W/m2
09:35 53.8 °F /  12.1 °C 50.0 °F /  10 °C 30.54 in /  1034.1 hPa WNW 5.0 mph /  8 km/h 11.0 mph /  17.7 km/h 87 % 0.00 in /  0 mm 137 W/m2
09:40 54.0 °F /  12.2 °C 49.9 °F /  9.9 °C 30.53 in /  1033.7 hPa WNW 6.0 mph /  9.7 km/h 11.0 mph /  17.7 km/h 86 % 0.00 in /  0 mm 241 W/m2
09:45 54.1 °F /  12.3 °C 50.0 °F /  10 °C 30.53 in /  1033.7 hPa WNW 6.0 mph /  9.7 km/h 11.0 mph /  17.7 km/h 86 % 0.00 in /  0 mm 183 W/m2
09:50 54.5 °F /  12.5 °C 50.1 °F /  10.1 °C 30.54 in /  1034.1 hPa WNW 7.0 mph /  11.3 km/h 15.0 mph /  24.1 km/h 85 % 0.00 in /  0 mm 105 W/m2
09:55 54.7 °F /  12.6 °C 49.6 °F /  9.8 °C 30.54 in /  1034.1 hPa WNW 8.0 mph /  12.9 km/h 16.0 mph /  25.7 km/h 83 % 0.00 in /  0 mm 128 W/m2
10:00 54.3 °F /  12.4 °C 48.6 °F /  9.2 °C 30.54 in /  1034.1 hPa NW 9.0 mph /  14.5 km/h 16.0 mph /  25.7 km/h 81 % 0.00 in /  0 mm 306 W/m2
10:05 54.7 °F /  12.6 °C 49.3 °F /  9.6 °C 30.54 in /  1034.1 hPa NW 8.0 mph /  12.9 km/h 15.0 mph /  24.1 km/h 82 % 0.00 in /  0 mm 216 W/m2
10:10 54.9 °F /  12.7 °C 49.1 °F /  9.5 °C 30.54 in /  1034.1 hPa WNW 7.0 mph /  11.3 km/h 15.0 mph /  24.1 km/h 81 % 0.00 in /  0 mm 218 W/m2
10:15 55.0 °F /  12.8 °C 49.3 °F /  9.6 °C 30.54 in /  1034.1 hPa WNW 7.0 mph /  11.3 km/h 14.0 mph /  22.5 km/h 81 % 0.00 in /  0 mm 258 W/m2
10:20 55.2 °F /  12.9 °C 49.2 °F /  9.6 °C 30.54 in /  1034.1 hPa WNW 7.0 mph /  11.3 km/h 12.0 mph /  19.3 km/h 80 % 0.00 in /  0 mm 274 W/m2
10:25 55.4 °F /  13 °C 49.0 °F /  9.4 °C 30.54 in /  1034.1 hPa WNW 8.0 mph /  12.9 km/h 14.0 mph /  22.5 km/h 79 % 0.00 in /  0 mm 288 W/m2
10:30 55.6 °F /  13.1 °C 49.2 °F /  9.6 °C 30.54 in /  1034.1 hPa WNW 8.0 mph /  12.9 km/h 15.0 mph /  24.1 km/h 79 % 0.00 in /  0 mm 311 W/m2
10:35 55.6 °F /  13.1 °C 48.5 °F /  9.2 °C 30.54 in /  1034.1 hPa WNW 8.0 mph /  12.9 km/h 15.0 mph /  24.1 km/h 77 % 0.00 in /  0 mm 313 W/m2
10:40 55.8 °F /  13.2 °C 48.7 °F /  9.3 °C 30.54 in /  1034.1 hPa WNW 9.0 mph /  14.5 km/h 16.0 mph /  25.7 km/h 77 % 0.00 in /  0 mm 373 W/m2
10:45 55.9 °F /  13.3 °C 48.5 °F /  9.2 °C 30.54 in /  1034.1 hPa WNW 10.0 mph /  16.1 km/h 18.0 mph /  29 km/h 76 % 0.00 in /  0 mm 392 W/m2
10:50 56.1 °F /  13.4 °C 48.7 °F /  9.3 °C 30.54 in /  1034.1 hPa WNW 10.0 mph /  16.1 km/h 18.0 mph /  29 km/h 76 % 0.00 in /  0 mm 345 W/m2
10:55 56.5 °F /  13.6 °C 48.6 °F /  9.2 °C 30.53 in /  1033.7 hPa WNW 9.0 mph /  14.5 km/h 16.0 mph /  25.7 km/h 75 % 0.00 in /  0 mm 359 W/m2
11:00 56.7 °F /  13.7 °C 48.5 °F /  9.2 °C 30.54 in /  1034.1 hPa WNW 9.0 mph /  14.5 km/h 16.0 mph /  25.7 km/h 74 % 0.00 in /  0 mm 383 W/m2
11:05 56.8 °F /  13.8 °C 48.3 °F /  9.1 °C 30.54 in /  1034.1 hPa NW 9.0 mph /  14.5 km/h 19.0 mph /  30.6 km/h 73 % 0.00 in /  0 mm 403 W/m2
11:11 57.2 °F /  14 °C 48.3 °F /  9.1 °C 30.53 in /  1033.7 hPa NW 9.0 mph /  14.5 km/h 19.0 mph /  30.6 km/h 72 % 0.00 in /  0 mm 332 W/m2
11:16 57.6 °F /  14.2 °C 48.6 °F /  9.2 °C 30.53 in /  1033.7 hPa NW 8.0 mph /  12.9 km/h 14.0 mph /  22.5 km/h 72 % 0.00 in /  0 mm 353 W/m2
11:21 57.7 °F /  14.3 °C 48.0 °F /  8.9 °C 30.54 in /  1034.1 hPa WNW 8.0 mph /  12.9 km/h 15.0 mph /  24.1 km/h 70 % 0.00 in /  0 mm 350 W/m2
11:26 57.9 °F /  14.4 °C 47.8 °F /  8.8 °C 30.53 in /  1033.7 hPa WNW 9.0 mph /  14.5 km/h 18.0 mph /  29 km/h 69 % 0.00 in /  0 mm 383 W/m2
11:31 57.9 °F /  14.4 °C 47.8 °F /  8.8 °C 30.54 in /  1034.1 hPa WNW 10.0 mph /  16.1 km/h 18.0 mph /  29 km/h 69 % 0.00 in /  0 mm 397 W/m2
11:36 58.5 °F /  14.7 °C 49.1 °F /  9.5 °C 30.53 in /  1033.7 hPa WNW 9.0 mph /  14.5 km/h 18.0 mph /  29 km/h 71 % 0.00 in /  0 mm 1111 W/m2
11:41 58.8 °F /  14.9 °C 48.3 °F /  9.1 °C 30.54 in /  1034.1 hPa WNW 10.0 mph /  16.1 km/h 18.0 mph /  29 km/h 68 % 0.00 in /  0 mm 209 W/m2
11:46 58.5 °F /  14.7 °C 47.1 °F /  8.4 °C 30.54 in /  1034.1 hPa WNW 10.0 mph /  16.1 km/h 16.0 mph /  25.7 km/h 66 % 0.00 in /  0 mm 188 W/m2
11:51 57.9 °F /  14.4 °C 47.4 °F /  8.6 °C 30.54 in /  1034.1 hPa WNW 9.0 mph /  14.5 km/h 16.0 mph /  25.7 km/h 68 % 0.00 in /  0 mm 195 W/m2
11:56 57.6 °F /  14.2 °C 47.8 °F /  8.8 °C 30.54 in /  1034.1 hPa WNW 8.0 mph /  12.9 km/h 14.0 mph /  22.5 km/h 70 % 0.00 in /  0 mm 195 W/m2
12:01 57.4 °F /  14.1 °C 48.1 °F /  8.9 °C 30.54 in /  1034.1 hPa WNW 7.0 mph /  11.3 km/h 14.0 mph /  22.5 km/h 71 % 0.00 in /  0 mm 223 W/m2
12:06 57.4 °F /  14.1 °C 47.7 °F /  8.7 °C 30.54 in /  1034.1 hPa WNW 7.0 mph /  11.3 km/h 14.0 mph /  22.5 km/h 70 % 0.00 in /  0 mm 232 W/m2
12:11 57.2 °F /  14 °C 47.9 °F /  8.8 °C 30.54 in /  1034.1 hPa WNW 8.0 mph /  12.9 km/h 14.0 mph /  22.5 km/h 71 % 0.00 in /  0 mm 221 W/m2
12:16 57.0 °F /  13.9 °C 47.3 °F /  8.5 °C 30.54 in /  1034.1 hPa WNW 8.0 mph /  12.9 km/h 15.0 mph /  24.1 km/h 70 % 0.00 in /  0 mm 178 W/m2
12:21 57.0 °F /  13.9 °C 47.7 °F /  8.7 °C 30.53 in /  1033.7 hPa WNW 8.0 mph /  12.9 km/h 15.0 mph /  24.1 km/h 71 % 0.00 in /  0 mm 174 W/m2
12:26 57.0 °F /  13.9 °C 47.7 °F /  8.7 °C 30.53 in /  1033.7 hPa WNW 8.0 mph /  12.9 km/h 13.0 mph /  20.9 km/h 71 % 0.00 in /  0 mm 204 W/m2
12:31 56.8 °F /  13.8 °C 47.2 °F /  8.4 °C 30.53 in /  1033.7 hPa WNW 8.0 mph /  12.9 km/h 14.0 mph /  22.5 km/h 70 % 0.00 in /  0 mm 232 W/m2
12:36 57.0 °F /  13.9 °C 47.3 °F /  8.5 °C 30.53 in /  1033.7 hPa WNW 8.0 mph /  12.9 km/h 14.0 mph /  22.5 km/h 70 % 0.00 in /  0 mm 294 W/m2
12:41 57.2 °F /  14 °C 47.5 °F /  8.6 °C 30.53 in /  1033.7 hPa WNW 8.0 mph /  12.9 km/h 13.0 mph /  20.9 km/h 70 % 0.00 in /  0 mm 343 W/m2
12:46 57.6 °F /  14.2 °C 47.8 °F /  8.8 °C 30.53 in /  1033.7 hPa WNW 8.0 mph /  12.9 km/h 13.0 mph /  20.9 km/h 70 % 0.00 in /  0 mm 404 W/m2
12:51 57.7 °F /  14.3 °C 47.6 °F /  8.7 °C 30.53 in /  1033.7 hPa WNW 7.0 mph /  11.3 km/h 12.0 mph /  19.3 km/h 69 % 0.00 in /  0 mm 269 W/m2
12:56 57.7 °F /  14.3 °C 47.2 °F /  8.4 °C 30.53 in /  1033.7 hPa West 8.0 mph /  12.9 km/h 13.0 mph /  20.9 km/h 68 % 0.00 in /  0 mm 188 W/m2
13:01 57.6 °F /  14.2 °C 47.5 °F /  8.6 °C 30.53 in /  1033.7 hPa West 8.0 mph /  12.9 km/h 14.0 mph /  22.5 km/h 69 % 0.00 in /  0 mm 257 W/m2
13:06 57.7 °F /  14.3 °C 47.2 °F /  8.4 °C 30.53 in /  1033.7 hPa WNW 8.0 mph /  12.9 km/h 14.0 mph /  22.5 km/h 68 % 0.00 in /  0 mm 299 W/m2
13:07 57.7 °F /  14.3 °C 47.6 °F /  8.7 °C 30.53 in /  1033.7 hPa WNW 8.0 mph /  12.9 km/h 14.0 mph /  22.5 km/h 69 % 0.00 in /  0 mm 294 W/m2
13:12 57.9 °F /  14.4 °C 47.0 °F /  8.3 °C 30.53 in /  1033.7 hPa WNW 8.0 mph /  12.9 km/h 14.0 mph /  22.5 km/h 67 % 0.00 in /  0 mm 225 W/m2
13:17 57.9 °F /  14.4 °C 47.4 °F /  8.6 °C 30.53 in /  1033.7 hPa West 8.0 mph /  12.9 km/h 21.0 mph /  33.8 km/h 68 % 0.00 in /  0 mm 195 W/m2
13:23 57.6 °F /  14.2 °C 46.3 °F /  7.9 °C 30.53 in /  1033.7 hPa West 10.0 mph /  16.1 km/h 23.0 mph /  37 km/h 66 % 0.00 in /  0 mm 209 W/m2
13:28 57.2 °F /  14 °C 46.7 °F /  8.2 °C 30.53 in /  1033.7 hPa West 11.0 mph /  17.7 km/h 23.0 mph /  37 km/h 68 % 0.00 in /  0 mm 209 W/m2
13:33 57.2 °F /  14 °C 46.7 °F /  8.2 °C 30.53 in /  1033.7 hPa WNW 9.0 mph /  14.5 km/h 16.0 mph /  25.7 km/h 68 % 0.00 in /  0 mm 236 W/m2
13:38 57.0 °F /  13.9 °C 45.8 °F /  7.7 °C 30.53 in /  1033.7 hPa WNW 10.0 mph /  16.1 km/h 16.0 mph /  25.7 km/h 66 % 0.00 in /  0 mm 197 W/m2
13:43 57.0 °F /  13.9 °C 45.8 °F /  7.7 °C 30.53 in /  1033.7 hPa WNW 10.0 mph /  16.1 km/h 18.0 mph /  29 km/h 66 % 0.00 in /  0 mm 181 W/m2
13:48 57.0 °F /  13.9 °C 45.8 °F /  7.7 °C 30.53 in /  1033.7 hPa WNW 10.0 mph /  16.1 km/h 20.0 mph /  32.2 km/h 66 % 0.00 in /  0 mm 139 W/m2
13:53 56.8 °F /  13.8 °C 45.6 °F /  7.6 °C 30.53 in /  1033.7 hPa WNW 10.0 mph /  16.1 km/h 20.0 mph /  32.2 km/h 66 % 0.00 in /  0 mm 160 W/m2
13:58 56.8 °F /  13.8 °C 45.6 °F /  7.6 °C 30.53 in /  1033.7 hPa WNW 10.0 mph /  16.1 km/h 18.0 mph /  29 km/h 66 % 0.00 in /  0 mm 200 W/m2
14:03 56.8 °F /  13.8 °C 46.0 °F /  7.8 °C 30.53 in /  1033.7 hPa WNW 9.0 mph /  14.5 km/h 16.0 mph /  25.7 km/h 67 % 0.00 in /  0 mm 283 W/m2
14:08 57.0 °F /  13.9 °C 46.6 °F /  8.1 °C 30.52 in /  1033.4 hPa WNW 9.0 mph /  14.5 km/h 15.0 mph /  24.1 km/h 68 % 0.00 in /  0 mm 348 W/m2
14:13 57.4 °F /  14.1 °C 46.9 °F /  8.3 °C 30.52 in /  1033.4 hPa WNW 9.0 mph /  14.5 km/h 16.0 mph /  25.7 km/h 68 % 0.00 in /  0 mm 415 W/m2
14:18 57.7 °F /  14.3 °C 46.9 °F /  8.3 °C 30.52 in /  1033.4 hPa West 10.0 mph /  16.1 km/h 16.0 mph /  25.7 km/h 67 % 0.00 in /  0 mm 380 W/m2
14:23 58.3 °F /  14.6 °C 47.0 °F /  8.3 °C 30.52 in /  1033.4 hPa WNW 10.0 mph /  16.1 km/h 18.0 mph /  29 km/h 66 % 0.00 in /  0 mm 359 W/m2
14:28 58.5 °F /  14.7 °C 47.1 °F /  8.4 °C 30.52 in /  1033.4 hPa WNW 10.0 mph /  16.1 km/h 19.0 mph /  30.6 km/h 66 % 0.00 in /  0 mm 318 W/m2
14:33 58.5 °F /  14.7 °C 46.7 °F /  8.2 °C 30.52 in /  1033.4 hPa West 11.0 mph /  17.7 km/h 19.0 mph /  30.6 km/h 65 % 0.00 in /  0 mm 272 W/m2
14:38 58.5 °F /  14.7 °C 46.7 °F /  8.2 °C 30.51 in /  1033.1 hPa West 11.0 mph /  17.7 km/h 18.0 mph /  29 km/h 65 % 0.00 in /  0 mm 441 W/m2
14:43 59.2 °F /  15.1 °C 46.6 °F /  8.1 °C 30.51 in /  1033.1 hPa WNW 10.0 mph /  16.1 km/h 18.0 mph /  29 km/h 63 % 0.00 in /  0 mm 397 W/m2
14:48 59.4 °F /  15.2 °C 45.9 °F /  7.7 °C 30.51 in /  1033.1 hPa WNW 10.0 mph /  16.1 km/h 18.0 mph /  29 km/h 61 % 0.00 in /  0 mm 227 W/m2
14:53 59.2 °F /  15.1 °C 45.7 °F /  7.6 °C 30.51 in /  1033.1 hPa WNW 12.0 mph /  19.3 km/h 23.0 mph /  37 km/h 61 % 0.00 in /  0 mm 225 W/m2
14:58 58.6 °F /  14.8 °C 46.1 °F /  7.8 °C 30.51 in /  1033.1 hPa WNW 13.0 mph /  20.9 km/h 23.0 mph /  37 km/h 63 % 0.00 in /  0 mm 381 W/m2
15:03 58.8 °F /  14.9 °C 46.7 °F /  8.2 °C 30.51 in /  1033.1 hPa WNW 13.0 mph /  20.9 km/h 22.0 mph /  35.4 km/h 64 % 0.00 in /  0 mm 313 W/m2
15:08 58.6 °F /  14.8 °C 46.1 °F /  7.8 °C 30.51 in /  1033.1 hPa West 13.0 mph /  20.9 km/h 25.0 mph /  40.2 km/h 63 % 0.00 in /  0 mm 323 W/m2
15:13 58.5 °F /  14.7 °C 45.9 °F /  7.7 °C 30.51 in /  1033.1 hPa WNW 14.0 mph /  22.5 km/h 25.0 mph /  40.2 km/h 63 % 0.00 in /  0 mm 308 W/m2
15:18 58.5 °F /  14.7 °C 46.3 °F /  7.9 °C 30.51 in /  1033.1 hPa WNW 12.0 mph /  19.3 km/h 22.0 mph /  35.4 km/h 64 % 0.00 in /  0 mm 418 W/m2
15:23 58.6 °F /  14.8 °C 46.9 °F /  8.3 °C 30.51 in /  1033.1 hPa WNW 12.0 mph /  19.3 km/h 21.0 mph /  33.8 km/h 65 % 0.00 in /  0 mm 360 W/m2
15:28 58.8 °F /  14.9 °C 47.1 °F /  8.4 °C 30.51 in /  1033.1 hPa WNW 13.0 mph /  20.9 km/h 23.0 mph /  37 km/h 65 % 0.00 in /  0 mm 418 W/m2
15:33 59.4 °F /  15.2 °C 47.2 °F /  8.4 °C 30.51 in /  1033.1 hPa WNW 13.0 mph /  20.9 km/h 23.0 mph /  37 km/h 64 % 0.00 in /  0 mm 545 W/m2
15:38 59.5 °F /  15.3 °C 46.9 °F /  8.3 °C 30.50 in /  1032.7 hPa WNW 12.0 mph /  19.3 km/h 23.0 mph /  37 km/h 63 % 0.00 in /  0 mm 366 W/m2
15:39 59.5 °F /  15.3 °C 46.5 °F /  8.1 °C 30.50 in /  1032.7 hPa WNW 12.0 mph /  19.3 km/h 23.0 mph /  37 km/h 62 % 0.00 in /  0 mm 336 W/m2
15:44 59.4 °F /  15.2 °C 46.8 °F /  8.2 °C 30.51 in /  1033.1 hPa WNW 11.0 mph /  17.7 km/h 22.0 mph /  35.4 km/h 63 % 0.00 in /  0 mm 304 W/m2
15:49 59.4 °F /  15.2 °C 46.3 °F /  7.9 °C 30.50 in /  1032.7 hPa WNW 11.0 mph /  17.7 km/h 23.0 mph /  37 km/h 62 % 0.00 in /  0 mm 308 W/m2
15:54 59.4 °F /  15.2 °C 46.8 °F /  8.2 °C 30.50 in /  1032.7 hPa NW 11.0 mph /  17.7 km/h 23.0 mph /  37 km/h 63 % 0.00 in /  0 mm 364 W/m2
15:59 59.4 °F /  15.2 °C 47.2 °F /  8.4 °C 30.50 in /  1032.7 hPa WNW 11.0 mph /  17.7 km/h 21.0 mph /  33.8 km/h 64 % 0.00 in /  0 mm 367 W/m2
16:04 59.2 °F /  15.1 °C 47.0 °F /  8.3 °C 30.50 in /  1032.7 hPa WNW 12.0 mph /  19.3 km/h 24.0 mph /  38.6 km/h 64 % 0.00 in /  0 mm 355 W/m2
16:09 59.2 °F /  15.1 °C 47.0 °F /  8.3 °C 30.50 in /  1032.7 hPa WNW 12.0 mph /  19.3 km/h 24.0 mph /  38.6 km/h 64 % 0.00 in /  0 mm 278 W/m2
16:14 59.2 °F /  15.1 °C 47.0 °F /  8.3 °C 30.50 in /  1032.7 hPa WNW 11.0 mph /  17.7 km/h 23.0 mph /  37 km/h 64 % 0.00 in /  0 mm 306 W/m2
16:19 59.2 °F /  15.1 °C 47.4 °F /  8.6 °C 30.50 in /  1032.7 hPa WNW 12.0 mph /  19.3 km/h 23.0 mph /  37 km/h 65 % 0.00 in /  0 mm 323 W/m2
16:24 59.0 °F /  15 °C 47.2 °F /  8.4 °C 30.50 in /  1032.7 hPa WNW 11.0 mph /  17.7 km/h 21.0 mph /  33.8 km/h 65 % 0.00 in /  0 mm 292 W/m2
16:29 59.0 °F /  15 °C 47.2 °F /  8.4 °C 30.49 in /  1032.4 hPa WNW 11.0 mph /  17.7 km/h 20.0 mph /  32.2 km/h 65 % 0.00 in /  0 mm 251 W/m2
16:35 58.8 °F /  14.9 °C 47.1 °F /  8.4 °C 30.49 in /  1032.4 hPa WNW 10.0 mph /  16.1 km/h 20.0 mph /  32.2 km/h 65 % 0.00 in /  0 mm 258 W/m2
16:40 59.0 °F /  15 °C 47.2 °F /  8.4 °C 30.49 in /  1032.4 hPa NW 9.0 mph /  14.5 km/h 18.0 mph /  29 km/h 65 % 0.00 in /  0 mm 248 W/m2
16:45 59.0 °F /  15 °C 47.2 °F /  8.4 °C 30.49 in /  1032.4 hPa NW 9.0 mph /  14.5 km/h 18.0 mph /  29 km/h 65 % 0.00 in /  0 mm 246 W/m2
16:50 59.0 °F /  15 °C 47.2 °F /  8.4 °C 30.49 in /  1032.4 hPa NW 10.0 mph /  16.1 km/h 18.0 mph /  29 km/h 65 % 0.00 in /  0 mm 246 W/m2
16:55 59.0 °F /  15 °C 46.8 °F /  8.2 °C 30.49 in /  1032.4 hPa WNW 10.0 mph /  16.1 km/h 18.0 mph /  29 km/h 64 % 0.00 in /  0 mm 211 W/m2
17:00 58.8 °F /  14.9 °C 46.7 °F /  8.2 °C 30.49 in /  1032.4 hPa WNW 10.0 mph /  16.1 km/h 18.0 mph /  29 km/h 64 % 0.00 in /  0 mm 190 W/m2
17:05 58.8 °F /  14.9 °C 46.7 °F /  8.2 °C 30.49 in /  1032.4 hPa WNW 11.0 mph /  17.7 km/h 19.0 mph /  30.6 km/h 64 % 0.00 in /  0 mm 155 W/m2
17:10 58.5 °F /  14.7 °C 45.9 °F /  7.7 °C 30.49 in /  1032.4 hPa WNW 11.0 mph /  17.7 km/h 20.0 mph /  32.2 km/h 63 % 0.00 in /  0 mm 141 W/m2
17:15 58.3 °F /  14.6 °C 46.2 °F /  7.9 °C 30.49 in /  1032.4 hPa WNW 11.0 mph /  17.7 km/h 20.0 mph /  32.2 km/h 64 % 0.00 in /  0 mm 142 W/m2
17:20 58.3 °F /  14.6 °C 46.6 °F /  8.1 °C 30.49 in /  1032.4 hPa WNW 10.0 mph /  16.1 km/h 18.0 mph /  29 km/h 65 % 0.00 in /  0 mm 137 W/m2
17:25 58.1 °F /  14.5 °C 46.4 °F /  8 °C 30.49 in /  1032.4 hPa WNW 8.0 mph /  12.9 km/h 15.0 mph /  24.1 km/h 65 % 0.00 in /  0 mm 107 W/m2
17:30 57.9 °F /  14.4 °C 46.6 °F /  8.1 °C 30.49 in /  1032.4 hPa WNW 8.0 mph /  12.9 km/h 16.0 mph /  25.7 km/h 66 % 0.00 in /  0 mm 139 W/m2
17:35 57.9 °F /  14.4 °C 46.6 °F /  8.1 °C 30.49 in /  1032.4 hPa WNW 10.0 mph /  16.1 km/h 18.0 mph /  29 km/h 66 % 0.00 in /  0 mm 149 W/m2
17:40 57.6 °F /  14.2 °C 46.3 °F /  7.9 °C 30.49 in /  1032.4 hPa WNW 12.0 mph /  19.3 km/h 22.0 mph /  35.4 km/h 66 % 0.00 in /  0 mm 127 W/m2
17:45 57.0 °F /  13.9 °C 46.2 °F /  7.9 °C 30.49 in /  1032.4 hPa WNW 13.0 mph /  20.9 km/h 22.0 mph /  35.4 km/h 67 % 0.00 in /  0 mm 114 W/m2
17:50 56.8 °F /  13.8 °C 46.0 °F /  7.8 °C 30.49 in /  1032.4 hPa WNW 12.0 mph /  19.3 km/h 21.0 mph /  33.8 km/h 67 % 0.00 in /  0 mm 102 W/m2
17:55 56.8 °F /  13.8 °C 46.4 °F /  8 °C 30.49 in /  1032.4 hPa WNW 11.0 mph /  17.7 km/h 20.0 mph /  32.2 km/h 68 % 0.00 in /  0 mm 93 W/m2
18:00 56.7 °F /  13.7 °C 46.6 °F /  8.1 °C 30.50 in /  1032.7 hPa WNW 10.0 mph /  16.1 km/h 20.0 mph /  32.2 km/h 69 % 0.00 in /  0 mm 86 W/m2
18:05 56.5 °F /  13.6 °C 46.4 °F /  8 °C 30.49 in /  1032.4 hPa WNW 11.0 mph /  17.7 km/h 19.0 mph /  30.6 km/h 69 % 0.00 in /  0 mm 77 W/m2
18:10 56.5 °F /  13.6 °C 46.8 °F /  8.2 °C 30.50 in /  1032.7 hPa WNW 11.0 mph /  17.7 km/h 19.0 mph /  30.6 km/h 70 % 0.00 in /  0 mm 67 W/m2
18:15 56.1 °F /  13.4 °C 46.5 °F /  8.1 °C 30.50 in /  1032.7 hPa WNW 12.0 mph /  19.3 km/h 20.0 mph /  32.2 km/h 70 % 0.00 in /  0 mm 63 W/m2
18:20 56.1 °F /  13.4 °C 46.8 °F /  8.2 °C 30.50 in /  1032.7 hPa WNW 11.0 mph /  17.7 km/h 20.0 mph /  32.2 km/h 71 % 0.00 in /  0 mm 49 W/m2
18:25 55.9 °F /  13.3 °C 46.7 °F /  8.2 °C 30.50 in /  1032.7 hPa WNW 10.0 mph /  16.1 km/h 18.0 mph /  29 km/h 71 % 0.00 in /  0 mm 69 W/m2
18:30 55.9 °F /  13.3 °C 46.7 °F /  8.2 °C 30.50 in /  1032.7 hPa WNW 9.0 mph /  14.5 km/h 16.0 mph /  25.7 km/h 71 % 0.00 in /  0 mm 76 W/m2
18:35 55.8 °F /  13.2 °C 46.9 °F /  8.3 °C 30.50 in /  1032.7 hPa WNW 9.0 mph /  14.5 km/h 18.0 mph /  29 km/h 72 % 0.00 in /  0 mm 65 W/m2
18:40 55.8 °F /  13.2 °C 46.9 °F /  8.3 °C 30.50 in /  1032.7 hPa WNW 9.0 mph /  14.5 km/h 19.0 mph /  30.6 km/h 72 % 0.00 in /  0 mm 67 W/m2
18:45 55.6 °F /  13.1 °C 46.7 °F /  8.2 °C 30.49 in /  1032.4 hPa WNW 10.0 mph /  16.1 km/h 19.0 mph /  30.6 km/h 72 % 0.00 in /  0 mm 54 W/m2
18:50 55.6 °F /  13.1 °C 47.1 °F /  8.4 °C 30.49 in /  1032.4 hPa WNW 10.0 mph /  16.1 km/h 19.0 mph /  30.6 km/h 73 % 0.00 in /  0 mm 60 W/m2
18:56 55.6 °F /  13.1 °C 47.4 °F /  8.6 °C 30.50 in /  1032.7 hPa WNW 8.0 mph /  12.9 km/h 19.0 mph /  30.6 km/h 74 % 0.00 in /  0 mm 49 W/m2
19:01 55.4 °F /  13 °C 47.2 °F /  8.4 °C 30.50 in /  1032.7 hPa WNW 7.0 mph /  11.3 km/h 15.0 mph /  24.1 km/h 74 % 0.00 in /  0 mm 46 W/m2
19:06 55.2 °F /  12.9 °C 47.1 °F /  8.4 °C 30.50 in /  1032.7 hPa WNW 8.0 mph /  12.9 km/h 15.0 mph /  24.1 km/h 74 % 0.00 in /  0 mm 33 W/m2
19:11 55.0 °F /  12.8 °C 47.3 °F /  8.5 °C 30.50 in /  1032.7 hPa WNW 7.0 mph /  11.3 km/h 15.0 mph /  24.1 km/h 75 % 0.00 in /  0 mm 32 W/m2
19:16 54.9 °F /  12.7 °C 47.1 °F /  8.4 °C 30.50 in /  1032.7 hPa WNW 7.0 mph /  11.3 km/h 14.0 mph /  22.5 km/h 75 % 0.00 in /  0 mm 28 W/m2
19:21 54.9 °F /  12.7 °C 47.1 °F /  8.4 °C 30.50 in /  1032.7 hPa WNW 8.0 mph /  12.9 km/h 15.0 mph /  24.1 km/h 75 % 0.00 in /  0 mm 30 W/m2
19:26 54.7 °F /  12.6 °C 46.9 °F /  8.3 °C 30.49 in /  1032.4 hPa WNW 8.0 mph /  12.9 km/h 18.0 mph /  29 km/h 75 % 0.00 in /  0 mm 26 W/m2
19:31 54.7 °F /  12.6 °C 47.3 °F /  8.5 °C 30.50 in /  1032.7 hPa WNW 8.0 mph /  12.9 km/h 18.0 mph /  29 km/h 76 % 0.00 in /  0 mm 26 W/m2
19:36 54.7 °F /  12.6 °C 47.3 °F /  8.5 °C 30.49 in /  1032.4 hPa WNW 8.0 mph /  12.9 km/h 13.0 mph /  20.9 km/h 76 % 0.00 in /  0 mm 23 W/m2
19:41 54.3 °F /  12.4 °C 46.9 °F /  8.3 °C 30.49 in /  1032.4 hPa West 7.0 mph /  11.3 km/h 13.0 mph /  20.9 km/h 76 % 0.00 in /  0 mm 19 W/m2
19:42 54.3 °F /  12.4 °C 46.9 °F /  8.3 °C 30.50 in /  1032.7 hPa West 7.0 mph /  11.3 km/h 13.0 mph /  20.9 km/h 76 % 0.00 in /  0 mm 19 W/m2
19:47 54.3 °F /  12.4 °C 46.9 °F /  8.3 °C 30.49 in /  1032.4 hPa WNW 7.0 mph /  11.3 km/h 14.0 mph /  22.5 km/h 76 % 0.00 in /  0 mm 18 W/m2
19:52 54.1 °F /  12.3 °C 47.1 °F /  8.4 °C 30.49 in /  1032.4 hPa WNW 7.0 mph /  11.3 km/h 14.0 mph /  22.5 km/h 77 % 0.00 in /  0 mm 14 W/m2
19:57 54.1 °F /  12.3 °C 47.1 °F /  8.4 °C 30.49 in /  1032.4 hPa West 7.0 mph /  11.3 km/h 12.0 mph /  19.3 km/h 77 % 0.00 in /  0 mm 11 W/m2
20:02 54.0 °F /  12.2 °C 46.9 °F /  8.3 °C 30.49 in /  1032.4 hPa WNW 6.0 mph /  9.7 km/h 12.0 mph /  19.3 km/h 77 % 0.00 in /  0 mm 9 W/m2
20:07 54.0 °F /  12.2 °C 46.9 °F /  8.3 °C 30.49 in /  1032.4 hPa WNW 6.0 mph /  9.7 km/h 11.0 mph /  17.7 km/h 77 % 0.00 in /  0 mm 7 W/m2
20:12 53.8 °F /  12.1 °C 47.1 °F /  8.4 °C 30.49 in /  1032.4 hPa WNW 6.0 mph /  9.7 km/h 12.0 mph /  19.3 km/h 78 % 0.00 in /  0 mm 5 W/m2
20:17 53.4 °F /  11.9 °C 46.7 °F /  8.2 °C 30.49 in /  1032.4 hPa WNW 7.0 mph /  11.3 km/h 14.0 mph /  22.5 km/h 78 % 0.00 in /  0 mm 0 W/m2
20:18 53.4 °F /  11.9 °C 46.7 °F /  8.2 °C 30.49 in /  1032.4 hPa WNW 7.0 mph /  11.3 km/h 14.0 mph /  22.5 km/h 78 % 0.00 in /  0 mm 0 W/m2
20:23 53.2 °F /  11.8 °C 46.9 °F /  8.3 °C 30.49 in /  1032.4 hPa West 8.0 mph /  12.9 km/h 14.0 mph /  22.5 km/h 79 % 0.00 in /  0 mm 0 W/m2
20:28 53.1 °F /  11.7 °C 46.7 °F /  8.2 °C 30.49 in /  1032.4 hPa WNW 6.0 mph /  9.7 km/h 13.0 mph /  20.9 km/h 79 % 0.00 in /  0 mm 0 W/m2
20:33 53.1 °F /  11.7 °C 46.7 °F /  8.2 °C 30.49 in /  1032.4 hPa WNW 6.0 mph /  9.7 km/h 13.0 mph /  20.9 km/h 79 % 0.00 in /  0 mm 0 W/m2
20:38 53.1 °F /  11.7 °C 46.7 °F /  8.2 °C 30.49 in /  1032.4 hPa WNW 7.0 mph /  11.3 km/h 14.0 mph /  22.5 km/h 79 % 0.00 in /  0 mm 0 W/m2
20:43 52.9 °F /  11.6 °C 46.5 °F /  8.1 °C 30.49 in /  1032.4 hPa WNW 6.0 mph /  9.7 km/h 14.0 mph /  22.5 km/h 79 % 0.00 in /  0 mm 0 W/m2
20:48 52.9 °F /  11.6 °C 46.9 °F /  8.3 °C 30.49 in /  1032.4 hPa WNW 4.0 mph /  6.4 km/h 10.0 mph /  16.1 km/h 80 % 0.00 in /  0 mm 0 W/m2
20:53 52.9 °F /  11.6 °C 46.9 °F /  8.3 °C 30.49 in /  1032.4 hPa WNW 5.0 mph /  8 km/h 12.0 mph /  19.3 km/h 80 % 0.00 in /  0 mm 0 W/m2
20:58 52.9 °F /  11.6 °C 46.9 °F /  8.3 °C 30.49 in /  1032.4 hPa WNW 7.0 mph /  11.3 km/h 12.0 mph /  19.3 km/h 80 % 0.00 in /  0 mm 0 W/m2
21:03 52.9 °F /  11.6 °C 46.9 °F /  8.3 °C 30.49 in /  1032.4 hPa WNW 7.0 mph /  11.3 km/h 14.0 mph /  22.5 km/h 80 % 0.00 in /  0 mm 0 W/m2
21:08 52.9 °F /  11.6 °C 46.9 °F /  8.3 °C 30.49 in /  1032.4 hPa WNW 7.0 mph /  11.3 km/h 14.0 mph /  22.5 km/h 80 % 0.00 in /  0 mm 0 W/m2
21:13 52.9 °F /  11.6 °C 46.9 °F /  8.3 °C 30.50 in /  1032.7 hPa WNW 7.0 mph /  11.3 km/h 14.0 mph /  22.5 km/h 80 % 0.00 in /  0 mm 0 W/m2
21:18 52.7 °F /  11.5 °C 46.7 °F /  8.2 °C 30.50 in /  1032.7 hPa WNW 6.0 mph /  9.7 km/h 12.0 mph /  19.3 km/h 80 % 0.00 in /  0 mm 0 W/m2
21:23 52.5 °F /  11.4 °C 46.5 °F /  8.1 °C 30.50 in /  1032.7 hPa WNW 6.0 mph /  9.7 km/h 12.0 mph /  19.3 km/h 80 % 0.00 in /  0 mm 0 W/m2
21:27 52.5 °F /  11.4 °C 46.5 °F /  8.1 °C 30.50 in /  1032.7 hPa WNW 6.0 mph /  9.7 km/h 12.0 mph /  19.3 km/h 80 % 0.00 in /  0 mm 0 W/m2
21:32 52.5 °F /  11.4 °C 46.5 °F /  8.1 °C 30.50 in /  1032.7 hPa WNW 6.0 mph /  9.7 km/h 12.0 mph /  19.3 km/h 80 % 0.00 in /  0 mm 0 W/m2
21:37 52.3 °F /  11.3 °C 46.4 °F /  8 °C 30.50 in /  1032.7 hPa WNW 5.0 mph /  8 km/h 11.0 mph /  17.7 km/h 80 % 0.00 in /  0 mm 0 W/m2
21:42 52.2 °F /  11.2 °C 46.5 °F /  8.1 °C 30.49 in /  1032.4 hPa WNW 6.0 mph /  9.7 km/h 14.0 mph /  22.5 km/h 81 % 0.00 in /  0 mm 0 W/m2
21:47 52.0 °F /  11.1 °C 46.3 °F /  7.9 °C 30.49 in /  1032.4 hPa WNW 6.0 mph /  9.7 km/h 14.0 mph /  22.5 km/h 81 % 0.00 in /  0 mm 0 W/m2
21:52 51.6 °F /  10.9 °C 46.0 °F /  7.8 °C 30.49 in /  1032.4 hPa WNW 7.0 mph /  11.3 km/h 13.0 mph /  20.9 km/h 81 % 0.00 in /  0 mm 0 W/m2
21:58 51.4 °F /  10.8 °C 46.1 °F /  7.8 °C 30.49 in /  1032.4 hPa WNW 7.0 mph /  11.3 km/h 13.0 mph /  20.9 km/h 82 % 0.00 in /  0 mm 0 W/m2
22:03 51.4 °F /  10.8 °C 46.1 °F /  7.8 °C 30.49 in /  1032.4 hPa WNW 6.0 mph /  9.7 km/h 12.0 mph /  19.3 km/h 82 % 0.00 in /  0 mm 0 W/m2
22:08 51.3 °F /  10.7 °C 46.3 °F /  7.9 °C 30.49 in /  1032.4 hPa WNW 6.0 mph /  9.7 km/h 12.0 mph /  19.3 km/h 83 % 0.00 in /  0 mm 0 W/m2
22:13 51.1 °F /  10.6 °C 46.1 °F /  7.8 °C 30.49 in /  1032.4 hPa WNW 6.0 mph /  9.7 km/h 12.0 mph /  19.3 km/h 83 % 0.00 in /  0 mm 0 W/m2
22:18 50.9 °F /  10.5 °C 45.9 °F /  7.7 °C 30.49 in /  1032.4 hPa WNW 6.0 mph /  9.7 km/h 12.0 mph /  19.3 km/h 83 % 0.00 in /  0 mm 0 W/m2
22:23 50.7 °F /  10.4 °C 45.7 °F /  7.6 °C 30.49 in /  1032.4 hPa WNW 5.0 mph /  8 km/h 10.0 mph /  16.1 km/h 83 % 0.00 in /  0 mm 0 W/m2
22:28 50.5 °F /  10.3 °C 45.6 °F /  7.6 °C 30.50 in /  1032.7 hPa WNW 4.0 mph /  6.4 km/h 10.0 mph /  16.1 km/h 83 % 0.00 in /  0 mm 0 W/m2
22:33 50.4 °F /  10.2 °C 45.7 °F /  7.6 °C 30.50 in /  1032.7 hPa WNW 5.0 mph /  8 km/h 10.0 mph /  16.1 km/h 84 % 0.00 in /  0 mm 0 W/m2
22:38 50.4 °F /  10.2 °C 45.7 °F /  7.6 °C 30.49 in /  1032.4 hPa WNW 5.0 mph /  8 km/h 12.0 mph /  19.3 km/h 84 % 0.00 in /  0 mm 0 W/m2
22:43 50.2 °F /  10.1 °C 45.5 °F /  7.5 °C 30.49 in /  1032.4 hPa WNW 6.0 mph /  9.7 km/h 12.0 mph /  19.3 km/h 84 % 0.00 in /  0 mm 0 W/m2
22:48 50.0 °F /  10 °C 45.4 °F /  7.4 °C 30.49 in /  1032.4 hPa WNW 6.0 mph /  9.7 km/h 14.0 mph /  22.5 km/h 84 % 0.00 in /  0 mm 0 W/m2
22:53 50.0 °F /  10 °C 45.7 °F /  7.6 °C 30.49 in /  1032.4 hPa WNW 6.0 mph /  9.7 km/h 14.0 mph /  22.5 km/h 85 % 0.00 in /  0 mm 0 W/m2
22:55 49.8 °F /  9.9 °C 45.5 °F /  7.5 °C 30.49 in /  1032.4 hPa WNW 7.0 mph /  11.3 km/h 12.0 mph /  19.3 km/h 85 % 0.00 in /  0 mm 0 W/m2
23:00 49.8 °F /  9.9 °C 45.5 °F /  7.5 °C 30.49 in /  1032.4 hPa WNW 7.0 mph /  11.3 km/h 13.0 mph /  20.9 km/h 85 % 0.00 in /  0 mm 0 W/m2
23:05 49.8 °F /  9.9 °C 45.5 °F /  7.5 °C 30.49 in /  1032.4 hPa WNW 8.0 mph /  12.9 km/h 14.0 mph /  22.5 km/h 85 % 0.00 in /  0 mm 0 W/m2
23:10 49.8 °F /  9.9 °C 45.5 °F /  7.5 °C 30.49 in /  1032.4 hPa WNW 7.0 mph /  11.3 km/h 14.0 mph /  22.5 km/h 85 % 0.00 in /  0 mm 0 W/m2
23:15 49.6 °F /  9.8 °C 45.6 °F /  7.6 °C 30.49 in /  1032.4 hPa WNW 5.0 mph /  8 km/h 10.0 mph /  16.1 km/h 86 % 0.00 in /  0 mm 0 W/m2
23:20 49.6 °F /  9.8 °C 45.6 °F /  7.6 °C 30.50 in /  1032.7 hPa WNW 5.0 mph /  8 km/h 10.0 mph /  16.1 km/h 86 % 0.00 in /  0 mm 0 W/m2
23:25 49.6 °F /  9.8 °C 45.6 °F /  7.6 °C 30.49 in /  1032.4 hPa WNW 5.0 mph /  8 km/h 10.0 mph /  16.1 km/h 86 % 0.00 in /  0 mm 0 W/m2
23:30 49.5 °F /  9.7 °C 45.4 °F /  7.4 °C 30.49 in /  1032.4 hPa WNW 6.0 mph /  9.7 km/h 11.0 mph /  17.7 km/h 86 % 0.00 in /  0 mm 0 W/m2
23:35 49.5 °F /  9.7 °C 45.4 °F /  7.4 °C 30.49 in /  1032.4 hPa WNW 7.0 mph /  11.3 km/h 13.0 mph /  20.9 km/h 86 % 0.00 in /  0 mm 0 W/m2
23:40 49.5 °F /  9.7 °C 45.4 °F /  7.4 °C 30.49 in /  1032.4 hPa WNW 8.0 mph /  12.9 km/h 13.0 mph /  20.9 km/h 86 % 0.00 in /  0 mm 0 W/m2
23:45 49.5 °F /  9.7 °C 45.4 °F /  7.4 °C 30.49 in /  1032.4 hPa WNW 7.0 mph /  11.3 km/h 13.0 mph /  20.9 km/h 86 % 0.00 in /  0 mm 0 W/m2
23:50 49.3 °F /  9.6 °C 45.6 °F /  7.6 °C 30.49 in /  1032.4 hPa WNW 6.0 mph /  9.7 km/h 13.0 mph /  20.9 km/h 87 % 0.00 in /  0 mm 0 W/m2
23:55 49.3 °F /  9.6 °C 45.6 °F /  7.6 °C 30.49 in /  1032.4 hPa WNW 6.0 mph /  9.7 km/h 11.0 mph /  17.7 km/h 87 % 0.00 in /  0 mm 0 W/m2
Delerius-Weather
Compliments of Weather Underground - 2.25 mb

Data updates at regular intervals.